Time;durP1;ratioP1;P1;durP2;ratioP2;P2;SDS_P1;SDS_P2;PMS_P1;PMS_P2;Temp;Humidity;BMP_temperature;BMP_pressure;BME280_temperature;BME280_humidity;BME280_pressure;Samples;Min_cycle;Max_cycle;Signal;HPM_P1;HPM_P2
2022/07/21 00:01:45;;;;;;;9.05;5.45;;;21.40;99.90;;;;;;5009106;28;20044;-85
2022/07/21 00:04:11;;;;;;;10.20;5.82;;;21.40;99.90;;;;;;4985201;28;20031;-85
2022/07/21 00:06:36;;;;;;;9.10;5.90;;;21.40;99.90;;;;;;4988011;28;20037;-85
2022/07/21 00:09:02;;;;;;;9.23;5.50;;;21.30;99.90;;;;;;4993939;28;20026;-85
2022/07/21 00:11:28;;;;;;;12.07;5.32;;;21.20;99.90;;;;;;5011870;28;20026;-85
2022/07/21 00:13:53;;;;;;;9.73;5.70;;;21.20;99.90;;;;;;4994096;28;20026;-85
2022/07/21 00:16:19;;;;;;;8.80;5.38;;;21.10;99.90;;;;;;5006573;28;20026;-85
2022/07/21 00:18:45;;;;;;;9.98;5.68;;;21.20;99.90;;;;;;5004670;28;20029;-85
2022/07/21 00:21:11;;;;;;;9.40;5.25;;;21.20;99.90;;;;;;4988072;28;20125;-86
2022/07/21 00:23:36;;;;;;;9.40;5.13;;;21.20;99.90;;;;;;4989992;28;20022;-85
2022/07/21 00:26:02;;;;;;;7.68;4.65;;;21.20;99.90;;;;;;4992286;28;20026;-85
2022/07/21 00:28:28;;;;;;;10.02;5.25;;;21.20;99.90;;;;;;4992259;28;20022;-85
2022/07/21 00:30:53;;;;;;;9.43;5.50;;;21.20;99.90;;;;;;4992260;28;20700;-85
2022/07/21 00:33:19;;;;;;;8.35;5.47;;;21.20;99.90;;;;;;4991333;28;20026;-85
2022/07/21 00:35:45;;;;;;;9.63;5.07;;;21.00;99.90;;;;;;4991809;28;20049;-85
2022/07/21 00:38:10;;;;;;;9.15;5.32;;;21.00;99.90;;;;;;4989554;28;20070;-85
2022/07/21 00:40:36;;;;;;;7.95;5.10;;;21.10;99.90;;;;;;5009053;28;20040;-85
2022/07/21 00:43:02;;;;;;;8.75;5.65;;;21.10;99.90;;;;;;4993361;28;20029;-86
2022/07/21 00:45:27;;;;;;;8.70;4.78;;;21.20;99.90;;;;;;5006854;28;20053;-85
2022/07/21 00:47:53;;;;;;;9.25;5.80;;;21.20;99.90;;;;;;4989448;28;20184;-85
2022/07/21 00:50:20;;;;;;;9.70;5.60;;;21.20;99.90;;;;;;4993232;28;20390;-85
2022/07/21 00:52:47;;;;;;;10.00;4.97;;;21.20;99.90;;;;;;4981408;28;20085;-85
2022/07/21 00:55:16;;;;;;;9.38;5.40;;;21.20;99.90;;;;;;4990511;28;20019;-85
2022/07/21 00:57:43;;;;;;;8.23;5.53;;;21.30;99.90;;;;;;5004777;28;20018;-85
2022/07/21 01:00:12;;;;;;;10.52;5.50;;;21.30;99.90;;;;;;5009700;28;20037;-85
2022/07/21 01:02:38;;;;;;;9.65;5.38;;;21.40;99.90;;;;;;4993672;28;20018;-85
2022/07/21 01:05:07;;;;;;;9.38;6.10;;;21.30;99.90;;;;;;5014589;28;20017;-85
2022/07/21 01:07:32;;;;;;;9.13;5.38;;;21.30;99.90;;;;;;4993747;28;20026;-86
2022/07/21 01:09:59;;;;;;;7.32;5.32;;;21.20;99.90;;;;;;4997216;28;20022;-85
2022/07/21 01:12:25;;;;;;;8.07;5.45;;;21.10;99.90;;;;;;4995129;28;20028;-85
2022/07/21 01:14:51;;;;;;;8.40;5.35;;;21.10;99.90;;;;;;4992789;28;20026;-86
2022/07/21 01:17:17;;;;;;;8.00;5.50;;;21.10;99.90;;;;;;4995188;28;20080;-85
2022/07/21 01:19:43;;;;;;;8.30;5.07;;;21.10;99.90;;;;;;5009875;28;20022;-86
2022/07/21 01:22:09;;;;;;;8.82;5.05;;;21.10;99.90;;;;;;4997219;28;20025;-86
2022/07/21 01:24:35;;;;;;;10.32;5.30;;;21.10;99.90;;;;;;5011801;28;20501;-86
2022/07/21 01:27:00;;;;;;;9.02;5.35;;;21.10;99.90;;;;;;5012763;28;20030;-86
2022/07/21 01:29:26;;;;;;;7.22;4.63;;;21.10;99.90;;;;;;4997213;28;20421;-86
2022/07/21 01:31:52;;;;;;;7.80;4.95;;;21.10;99.90;;;;;;4996976;28;20026;-86
2022/07/21 01:34:18;;;;;;;9.02;4.55;;;21.20;99.90;;;;;;4991919;28;20471;-86
2022/07/21 01:36:43;;;;;;;7.38;4.40;;;21.10;99.90;;;;;;4981613;28;20022;-86
2022/07/21 01:41:54;;;;;;;8.93;4.95;;;21.00;99.90;;;;;;5013392;28;20251;-86
2022/07/21 01:44:19;;;;;;;8.50;4.50;;;21.00;99.90;;;;;;4994021;28;20045;-86
2022/07/21 01:46:48;;;;;;;8.75;4.53;;;21.00;99.90;;;;;;5007237;28;20553;-86
2022/07/21 01:49:16;;;;;;;7.65;4.07;;;21.00;99.90;;;;;;5008414;28;20029;-86
2022/07/21 01:51:42;;;;;;;8.00;4.43;;;21.00;99.90;;;;;;4994250;28;20033;-86
2022/07/21 01:54:08;;;;;;;6.63;4.40;;;21.10;99.90;;;;;;4996899;28;20782;-86
2022/07/21 01:56:36;;;;;;;7.35;4.45;;;21.10;99.90;;;;;;4993774;28;20026;-86
2022/07/21 01:59:02;;;;;;;6.72;3.50;;;21.10;99.90;;;;;;4997378;28;20145;-86
2022/07/21 02:01:28;;;;;;;5.70;3.40;;;21.10;99.90;;;;;;4991625;28;20050;-86
2022/07/21 02:04:00;;;;;;;5.80;3.60;;;21.10;99.90;;;;;;5012594;28;20034;-86
2022/07/21 02:06:26;;;;;;;4.97;3.20;;;21.00;99.90;;;;;;4992621;28;20029;-87
2022/07/21 02:08:52;;;;;;;5.47;3.45;;;21.00;99.90;;;;;;4989395;28;20029;-86
2022/07/21 02:11:19;;;;;;;5.35;3.28;;;21.00;99.90;;;;;;4994352;28;20018;-86
2022/07/21 02:13:45;;;;;;;5.78;3.42;;;21.00;99.90;;;;;;5007572;28;20114;-86
2022/07/21 02:16:11;;;;;;;6.63;3.28;;;20.90;99.90;;;;;;5006768;28;20504;-87
2022/07/21 02:18:37;;;;;;;5.80;3.28;;;20.90;99.90;;;;;;4993396;28;20026;-86
2022/07/21 02:21:03;;;;;;;6.47;3.22;;;20.90;99.90;;;;;;4991630;28;20037;-86
2022/07/21 02:23:29;;;;;;;5.28;2.97;;;20.60;99.90;;;;;;4987866;28;20027;-86
2022/07/21 02:25:56;;;;;;;6.38;3.28;;;20.70;99.90;;;;;;5000945;28;20030;-86
2022/07/21 02:28:23;;;;;;;6.25;3.10;;;20.70;99.90;;;;;;5008985;28;20372;-86
2022/07/21 02:30:49;;;;;;;5.45;3.10;;;20.70;99.90;;;;;;4996408;28;20021;-86
2022/07/21 02:33:15;;;;;;;5.90;3.15;;;20.70;99.90;;;;;;5013948;28;20337;-87
2022/07/21 02:35:41;;;;;;;6.55;3.58;;;20.60;99.90;;;;;;4990097;28;20457;-86
2022/07/21 02:38:07;;;;;;;6.10;3.70;;;20.60;99.90;;;;;;5012338;28;20033;-86
2022/07/21 02:44:14;;;;;;;6.45;3.30;;;20.50;99.90;;;;;;4975841;28;20057;-87
2022/07/21 02:50:49;;;;;;;6.45;3.17;;;20.50;99.90;;;;;;5013333;23;20317;-87
2022/07/21 02:53:52;;;;;;;6.22;2.70;;;20.40;99.90;;;;;;4991204;28;20041;-85
2022/07/21 02:57:06;;;;;;;5.68;2.72;;;20.20;99.90;;;;;;5007088;28;20428;-86
2022/07/21 02:59:43;;;;;;;6.20;3.53;;;20.10;99.90;;;;;;4991826;28;20494;-86
2022/07/21 03:07:04;;;;;;;;;;;;;;;;;;;;;
2022/07/21 03:09:32;;;;;;;7.05;2.92;;;20.10;99.90;;;;;;4973633;28;20056;-86
2022/07/21 03:12:01;;;;;;;6.05;3.22;;;20.10;99.90;;;;;;4952277;28;20023;-86
2022/07/21 03:14:42;;;;;;;6.93;3.20;;;20.10;99.90;;;;;;4981827;28;20033;-86
2022/07/21 03:26:46;;;;;;;5.68;2.53;;;20.00;99.90;;;;;;4978760;28;20022;-86
2022/07/21 03:29:18;;;;;;;6.28;2.40;;;20.00;99.90;;;;;;5011703;28;20450;-86
2022/07/21 03:31:49;;;;;;;4.88;2.40;;;20.00;99.90;;;;;;5011516;28;20072;-86
2022/07/21 03:41:56;;;;;;;5.15;2.58;;;20.20;99.90;;;;;;4951364;28;20222;-86
2022/07/21 03:48:52;;;;;;;5.38;2.67;;;20.30;99.90;;;;;;4944553;29;20558;-86
2022/07/21 03:51:50;;;;;;;;;;;;;;;;;;;;;
2022/07/21 03:54:57;;;;;;;;;;;;;;;;;;;;;
2022/07/21 03:58:12;;;;;;;4.70;2.63;;;20.10;99.90;;;;;;4993303;28;20071;-86
2022/07/21 04:04:32;;;;;;;4.53;2.25;;;20.20;99.90;;;;;;5010029;28;20069;-86
2022/07/21 04:24:01;;;;;;;5.13;2.97;;;20.00;99.90;;;;;;4931642;29;20070;-86
2022/07/21 04:26:45;;;;;;;5.75;2.95;;;20.10;99.90;;;;;;4919231;29;20114;-86
2022/07/21 04:29:31;;;;;;;4.85;2.63;;;20.10;99.90;;;;;;4989289;23;20054;-86
2022/07/21 04:32:05;;;;;;;4.82;2.55;;;20.20;99.90;;;;;;4992805;28;20512;-86
2022/07/21 04:34:41;;;;;;;4.72;2.55;;;20.30;99.90;;;;;;5005309;28;20522;-87
2022/07/21 04:37:15;;;;;;;5.90;2.50;;;20.30;99.90;;;;;;5001186;28;20651;-86
2022/07/21 04:39:50;;;;;;;5.32;2.58;;;20.30;99.90;;;;;;4986201;28;20038;-86
2022/07/21 04:42:19;;;;;;;5.18;2.58;;;20.40;99.90;;;;;;4991062;28;20033;-86
2022/07/21 04:45:11;;;;;;;5.35;2.70;;;20.40;99.90;;;;;;5010299;28;20460;-87
2022/07/21 04:48:12;;;;;;;5.38;2.45;;;20.50;99.90;;;;;;4988144;28;20030;-87
2022/07/21 04:50:46;;;;;;;5.97;2.55;;;20.40;99.90;;;;;;4993186;28;20034;-87
2022/07/21 04:53:28;;;;;;;4.93;1.98;;;20.50;99.90;;;;;;4992346;28;20113;-87
2022/07/21 04:55:54;;;;;;;6.32;2.47;;;20.40;99.90;;;;;;4992147;28;20022;-86
2022/07/21 04:58:34;;;;;;;6.70;2.58;;;20.40;99.90;;;;;;4996002;28;20022;-86
2022/07/21 05:01:30;;;;;;;5.10;2.40;;;20.50;99.90;;;;;;5012022;28;20105;-86
2022/07/21 05:03:59;;;;;;;4.60;2.45;;;20.50;99.90;;;;;;5009110;28;20021;-86
2022/07/21 05:06:34;;;;;;;7.35;2.55;;;20.60;99.90;;;;;;4994810;28;20026;-86
2022/07/21 05:09:03;;;;;;;4.05;2.25;;;20.70;99.90;;;;;;5009414;28;20026;-86
2022/07/21 05:11:42;;;;;;;4.53;2.33;;;20.70;99.90;;;;;;5006034;28;20033;-86
2022/07/21 05:14:34;;;;;;;6.22;3.15;;;20.80;99.90;;;;;;5008713;28;20053;-86
2022/07/21 05:17:01;;;;;;;4.60;2.40;;;20.80;99.90;;;;;;4984354;28;20099;-85
2022/07/21 05:20:01;;;;;;;7.18;2.72;;;20.80;99.90;;;;;;4996121;28;20034;-85
2022/07/21 05:22:34;;;;;;;5.20;3.20;;;20.80;99.90;;;;;;5008916;28;20069;-86
2022/07/21 05:25:16;;;;;;;5.93;2.72;;;20.90;99.90;;;;;;5003021;28;20037;-86
2022/07/21 05:28:03;;;;;;;5.38;2.83;;;20.80;99.90;;;;;;5005012;28;20030;-86
2022/07/21 05:31:06;;;;;;;4.60;2.72;;;20.80;99.90;;;;;;5002077;28;20200;-85
2022/07/21 05:33:44;;;;;;;6.22;3.42;;;20.70;99.90;;;;;;4980368;28;20034;-86
2022/07/21 05:36:10;;;;;;;5.45;2.92;;;20.80;99.90;;;;;;4986783;28;20022;-85
2022/07/21 05:38:36;;;;;;;5.18;2.85;;;20.80;99.90;;;;;;4987369;28;20133;-85
2022/07/21 05:41:04;;;;;;;5.93;3.05;;;20.90;99.90;;;;;;4989824;28;20033;-85
2022/07/21 05:43:31;;;;;;;4.13;2.60;;;21.00;99.90;;;;;;4984194;28;20025;-85
2022/07/21 05:45:58;;;;;;;5.18;3.13;;;21.10;99.90;;;;;;5012553;28;20049;-86
2022/07/21 05:48:24;;;;;;;5.97;2.85;;;21.10;99.90;;;;;;5007865;28;20037;-86
2022/07/21 05:50:49;;;;;;;6.22;2.67;;;21.10;99.90;;;;;;4992203;28;20021;-86
2022/07/21 05:53:15;;;;;;;4.22;2.70;;;21.00;99.90;;;;;;5010158;28;20494;-86
2022/07/21 05:55:41;;;;;;;4.50;2.63;;;21.10;99.90;;;;;;5006136;28;20053;-86
2022/07/21 05:58:07;;;;;;;5.13;2.53;;;21.20;99.90;;;;;;5006739;28;20459;-86
2022/07/21 06:00:33;;;;;;;5.50;3.13;;;21.30;99.90;;;;;;4981910;28;20018;-84
2022/07/21 06:02:58;;;;;;;5.10;2.60;;;21.30;99.90;;;;;;4985999;28;20037;-86
2022/07/21 06:05:24;;;;;;;5.07;3.00;;;21.40;99.90;;;;;;4984644;28;20026;-86
2022/07/21 06:07:50;;;;;;;6.55;3.00;;;21.20;99.90;;;;;;5012793;28;20121;-85
2022/07/21 06:10:15;;;;;;;5.53;2.88;;;21.40;99.90;;;;;;4984355;28;20034;-84
2022/07/21 06:12:42;;;;;;;5.57;2.90;;;21.50;99.90;;;;;;5005883;28;20026;-84
2022/07/21 06:15:08;;;;;;;5.32;3.00;;;21.30;99.90;;;;;;5006678;28;20113;-84
2022/07/21 06:17:45;;;;;;;8.65;3.42;;;21.40;99.90;;;;;;5006554;28;20050;-85
2022/07/21 06:20:12;;;;;;;5.57;3.05;;;21.50;99.90;;;;;;4998570;28;20021;-84
2022/07/21 06:22:37;;;;;;;6.85;3.38;;;21.70;99.90;;;;;;5008134;28;20061;-83
2022/07/21 06:25:04;;;;;;;7.43;3.35;;;21.80;99.90;;;;;;4996149;28;20645;-86
2022/07/21 06:27:31;;;;;;;6.82;2.85;;;21.90;99.90;;;;;;4994787;28;20041;-85
2022/07/21 06:29:58;;;;;;;6.20;2.70;;;22.00;99.90;;;;;;4991777;28;20030;-85
2022/07/21 06:32:25;;;;;;;5.85;2.90;;;22.20;99.90;;;;;;4995819;28;20040;-84
2022/07/21 06:34:51;;;;;;;5.82;2.78;;;22.20;99.90;;;;;;4992788;28;20046;-84
2022/07/21 06:37:17;;;;;;;5.75;3.47;;;22.30;99.90;;;;;;4996710;28;20026;-88
2022/07/21 06:39:42;;;;;;;4.18;2.50;;;22.60;99.90;;;;;;5000473;28;20060;-87
2022/07/21 06:42:09;;;;;;;5.85;3.55;;;22.80;99.90;;;;;;5002631;28;20410;-86
2022/07/21 06:44:34;;;;;;;5.72;2.83;;;22.70;99.90;;;;;;4991469;28;20364;-88
2022/07/21 06:47:04;;;;;;;5.80;3.17;;;22.40;99.90;;;;;;5008039;28;20037;-87
2022/07/21 06:49:32;;;;;;;6.13;2.92;;;22.40;99.90;;;;;;4998308;28;20018;-88
2022/07/21 06:51:57;;;;;;;5.90;2.88;;;22.40;99.90;;;;;;5009880;28;20029;-87
2022/07/21 06:54:23;;;;;;;4.93;2.75;;;22.30;99.90;;;;;;5009000;28;20038;-87
2022/07/21 06:56:49;;;;;;;4.32;2.25;;;22.20;99.90;;;;;;4992961;28;20013;-87
2022/07/21 06:59:14;;;;;;;5.03;2.30;;;22.20;99.90;;;;;;5006933;28;20045;-87
2022/07/21 07:01:40;;;;;;;4.93;2.58;;;22.20;99.90;;;;;;4988444;28;20125;-86
2022/07/21 07:04:06;;;;;;;4.35;2.20;;;22.20;99.90;;;;;;4990964;28;20030;-88
2022/07/21 07:06:31;;;;;;;6.30;2.55;;;22.40;99.90;;;;;;4983894;28;20022;-88
2022/07/21 07:08:57;;;;;;;4.35;2.28;;;22.60;99.90;;;;;;4992369;28;20065;-87
2022/07/21 07:11:22;;;;;;;5.72;2.22;;;22.70;99.90;;;;;;4990886;28;20386;-86
2022/07/21 07:13:48;;;;;;;5.40;2.40;;;22.80;99.90;;;;;;4987976;28;20479;-88
2022/07/21 07:16:14;;;;;;;4.95;2.70;;;22.90;99.90;;;;;;4987559;28;20018;-88
2022/07/21 07:18:39;;;;;;;4.55;2.53;;;22.80;99.90;;;;;;4992044;28;20022;-88
2022/07/21 07:21:05;;;;;;;4.32;2.20;;;23.10;99.90;;;;;;4988179;28;20100;-87
2022/07/21 07:23:31;;;;;;;4.10;2.10;;;23.00;99.90;;;;;;4989335;28;20102;-86
2022/07/21 07:25:56;;;;;;;4.38;2.38;;;23.10;99.90;;;;;;4989740;28;20132;-87
2022/07/21 07:28:22;;;;;;;5.32;2.50;;;23.30;99.90;;;;;;4989808;28;20030;-87
2022/07/21 07:30:49;;;;;;;6.28;2.67;;;23.10;99.90;;;;;;4990087;28;20080;-85
2022/07/21 07:33:14;;;;;;;5.32;2.30;;;23.40;99.90;;;;;;4991530;28;20022;-86
2022/07/21 07:35:40;;;;;;;4.25;2.30;;;23.20;99.90;;;;;;4990010;28;20022;-87
2022/07/21 07:38:05;;;;;;;5.82;2.35;;;23.20;99.90;;;;;;4988894;28;20371;-87
2022/07/21 07:40:31;;;;;;;4.63;2.33;;;23.10;99.90;;;;;;4984123;28;20390;-87
2022/07/21 07:42:57;;;;;;;5.13;2.38;;;23.20;99.90;;;;;;4992535;28;20030;-87
2022/07/21 07:45:23;;;;;;;5.32;2.67;;;23.00;99.90;;;;;;4991525;28;20036;-87
2022/07/21 07:47:49;;;;;;;4.30;2.65;;;23.00;99.90;;;;;;4990307;28;20033;-87
2022/07/21 07:50:15;;;;;;;4.00;2.38;;;23.00;99.90;;;;;;4994350;28;20025;-87
2022/07/21 07:52:42;;;;;;;4.28;2.35;;;23.00;99.90;;;;;;4989645;28;20022;-87
2022/07/21 07:55:10;;;;;;;4.22;2.15;;;23.10;99.90;;;;;;4977477;28;20405;-85
2022/07/21 07:57:40;;;;;;;3.85;2.15;;;23.20;99.90;;;;;;4990910;28;20026;-84
2022/07/21 08:00:10;;;;;;;4.47;2.30;;;23.50;99.90;;;;;;5010661;28;20030;-85
2022/07/21 08:02:36;;;;;;;6.45;2.45;;;23.50;99.90;;;;;;5013834;28;20034;-87
2022/07/21 08:05:03;;;;;;;4.30;2.15;;;23.40;99.90;;;;;;4995388;28;20417;-87
2022/07/21 08:07:28;;;;;;;5.22;2.30;;;23.20;99.90;;;;;;5012669;28;20030;-86
2022/07/21 08:09:54;;;;;;;6.00;2.45;;;23.40;99.90;;;;;;5008147;28;20040;-87
2022/07/21 08:12:20;;;;;;;3.97;2.10;;;23.60;99.90;;;;;;4981316;28;20031;-86
2022/07/21 08:14:45;;;;;;;4.53;2.35;;;24.00;99.90;;;;;;4988189;28;20025;-86
2022/07/21 08:17:11;;;;;;;5.20;2.63;;;24.30;99.90;;;;;;5003077;28;20461;-87
2022/07/21 08:19:36;;;;;;;4.18;2.40;;;24.50;99.90;;;;;;4992252;28;20030;-86
2022/07/21 08:22:02;;;;;;;5.97;2.13;;;24.90;99.90;;;;;;5006940;28;20598;-89
2022/07/21 08:24:28;;;;;;;5.75;2.17;;;24.90;99.90;;;;;;5013172;28;20024;-86
2022/07/21 08:26:54;;;;;;;3.47;1.92;;;24.20;99.90;;;;;;4997080;28;20494;-88
2022/07/21 08:29:20;;;;;;;4.47;1.77;;;24.00;99.90;;;;;;5009884;28;20033;-88
2022/07/21 08:31:46;;;;;;;4.05;2.17;;;23.80;99.90;;;;;;5001301;28;20041;-88
2022/07/21 08:34:11;;;;;;;3.85;2.15;;;23.70;99.90;;;;;;4996877;28;20037;-87
2022/07/21 08:36:37;;;;;;;3.95;1.83;;;23.90;99.90;;;;;;4995837;28;20022;-88
2022/07/21 08:39:03;;;;;;;4.43;2.22;;;24.10;99.90;;;;;;5015798;28;20452;-87
2022/07/21 08:41:30;;;;;;;3.53;1.88;;;24.40;99.90;;;;;;4988384;28;20497;-87
2022/07/21 08:43:56;;;;;;;4.15;1.70;;;24.80;99.90;;;;;;5005061;28;20494;-88
2022/07/21 08:46:23;;;;;;;3.60;1.85;;;25.00;99.90;;;;;;5011567;28;20022;-88
2022/07/21 08:48:50;;;;;;;4.07;2.03;;;24.90;99.90;;;;;;5007655;28;20034;-88
2022/07/21 08:51:16;;;;;;;5.82;1.70;;;25.10;99.90;;;;;;5005784;23;20073;-90
2022/07/21 08:53:47;;;;;;;3.22;1.65;;;24.90;99.90;;;;;;4995854;28;20017;-90
2022/07/21 08:56:13;;;;;;;3.33;1.33;;;24.80;99.90;;;;;;5013134;28;20026;-91
2022/07/21 08:58:39;;;;;;;2.50;1.38;;;24.20;99.90;;;;;;5009452;28;20105;-90
2022/07/21 09:01:05;;;;;;;2.95;1.48;;;24.10;99.90;;;;;;4982371;28;20030;-89
2022/07/21 09:03:32;;;;;;;3.38;1.58;;;24.20;99.90;;;;;;4993039;28;20581;-90
2022/07/21 09:06:15;;;;;;;3.78;1.60;;;24.30;99.90;;;;;;4993277;28;20034;-90
2022/07/21 09:08:54;;;;;;;2.58;1.30;;;24.50;99.90;;;;;;4975982;28;20030;-90
2022/07/21 09:11:25;;;;;;;4.10;1.52;;;24.50;99.90;;;;;;4965637;28;20487;-90
2022/07/21 09:14:12;;;;;;;3.22;1.40;;;24.90;99.90;;;;;;4977572;28;20479;-90
2022/07/21 09:16:41;;;;;;;2.75;1.35;;;25.30;99.90;;;;;;4989977;28;20502;-90
2022/07/21 09:19:21;;;;;;;3.45;1.80;;;25.50;99.90;;;;;;4992575;28;20034;-90
2022/07/21 09:21:47;;;;;;;3.05;1.33;;;25.70;99.90;;;;;;4985532;28;20499;-90
2022/07/21 09:24:21;;;;;;;3.38;1.50;;;25.60;99.90;;;;;;4980152;28;20030;-90
2022/07/21 09:27:09;;;;;;;3.15;1.77;;;25.70;99.90;;;;;;4977824;28;20380;-91
2022/07/21 09:29:44;;;;;;;2.92;1.50;;;26.00;99.90;;;;;;4975746;28;20026;-91
2022/07/21 09:32:28;;;;;;;4.63;1.92;;;26.10;99.90;;;;;;4975606;28;20027;-90
2022/07/21 09:34:58;;;;;;;2.83;1.23;;;26.10;99.90;;;;;;4975858;28;20395;-90
2022/07/21 09:37:24;;;;;;;4.22;1.38;;;25.90;99.90;;;;;;4978872;28;20029;-90
2022/07/21 09:40:06;;;;;;;4.05;1.98;;;25.80;99.90;;;;;;4986934;28;20189;-90
2022/07/21 09:42:35;;;;;;;3.22;1.60;;;25.40;99.90;;;;;;4972584;28;20031;-91
2022/07/21 09:45:15;;;;;;;3.15;1.55;;;25.20;99.90;;;;;;4973727;28;20030;-90
2022/07/21 09:47:42;;;;;;;2.60;1.30;;;25.10;99.90;;;;;;4974275;28;20085;-91
2022/07/21 09:50:10;;;;;;;2.92;1.45;;;25.50;99.90;;;;;;4974501;28;20052;-90
2022/07/21 09:52:54;;;;;;;2.70;1.33;;;25.90;99.90;;;;;;4978611;28;20018;-90
2022/07/21 09:55:20;;;;;;;7.30;1.98;;;26.20;99.90;;;;;;4968312;28;20542;-91
2022/07/21 09:57:45;;;;;;;5.00;1.90;;;26.40;99.90;;;;;;4986537;28;20027;-90
2022/07/21 10:00:17;;;;;;;2.67;1.58;;;26.20;99.80;;;;;;4987133;28;20391;-89
2022/07/21 10:02:46;;;;;;;2.63;1.40;;;26.30;99.20;;;;;;4974587;28;20038;-90
2022/07/21 10:05:18;;;;;;;3.50;1.48;;;26.10;99.60;;;;;;4972779;28;20033;-90
2022/07/21 10:07:48;;;;;;;2.97;1.30;;;26.40;99.20;;;;;;4975817;28;20033;-90
2022/07/21 10:10:17;;;;;;;4.07;1.58;;;26.50;98.30;;;;;;4990246;28;20018;-90
2022/07/21 10:12:43;;;;;;;3.15;1.50;;;26.80;99.70;;;;;;4983488;28;20499;-91
2022/07/21 10:15:10;;;;;;;3.63;1.50;;;26.70;99.00;;;;;;4993591;28;20033;-90
2022/07/21 10:17:38;;;;;;;2.70;1.38;;;26.80;99.00;;;;;;4992098;28;20022;-90
2022/07/21 10:20:09;;;;;;;3.13;1.27;;;26.40;99.10;;;;;;4974745;28;20033;-90
2022/07/21 10:22:59;;;;;;;6.40;1.40;;;26.70;98.30;;;;;;4981550;28;20029;-90
2022/07/21 10:25:26;;;;;;;2.65;1.35;;;26.40;98.70;;;;;;4986730;28;20506;-89
2022/07/21 10:28:10;;;;;;;3.22;1.25;;;26.60;98.20;;;;;;4982203;28;20039;-90
2022/07/21 10:30:40;;;;;;;3.75;1.15;;;26.90;98.20;;;;;;4968990;28;20038;-90
2022/07/21 10:33:10;;;;;;;2.85;1.10;;;26.80;97.70;;;;;;4966326;28;20110;-90
2022/07/21 10:35:44;;;;;;;2.50;1.20;;;26.50;97.20;;;;;;4973699;28;20022;-90
2022/07/21 10:38:29;;;;;;;2.67;1.08;;;26.60;95.70;;;;;;4974690;28;20142;-90
2022/07/21 10:40:55;;;;;;;2.78;1.30;;;27.00;96.10;;;;;;4977444;28;20160;-90
2022/07/21 10:43:24;;;;;;;1.70;0.88;;;27.50;95.70;;;;;;4969323;28;20019;-91
2022/07/21 10:45:53;;;;;;;2.53;0.98;;;27.90;96.10;;;;;;4975251;28;20061;-90
2022/07/21 10:48:37;;;;;;;2.72;1.02;;;28.20;96.00;;;;;;4986600;28;20058;-91
2022/07/21 10:51:07;;;;;;;3.65;1.58;;;27.80;95.40;;;;;;4974268;28;20442;-90
2022/07/21 10:53:33;;;;;;;2.83;1.08;;;27.90;95.70;;;;;;4993482;28;20036;-90
2022/07/21 10:55:59;;;;;;;1.73;0.93;;;28.10;94.80;;;;;;4974519;28;20383;-90
2022/07/21 10:58:37;;;;;;;2.95;1.00;;;28.40;94.50;;;;;;4976180;28;20026;-90
2022/07/21 11:01:26;;;;;;;2.83;1.20;;;28.20;93.30;;;;;;4965688;28;20042;-90
2022/07/21 11:04:19;;;;;;;2.35;1.25;;;27.70;94.70;;;;;;4986693;28;20084;-90
2022/07/21 11:06:45;;;;;;;2.42;1.08;;;28.00;93.30;;;;;;4966613;28;20129;-90
2022/07/21 11:09:12;;;;;;;1.92;0.90;;;28.30;93.60;;;;;;4973416;28;20029;-90
2022/07/21 11:11:56;;;;;;;1.75;0.80;;;28.70;93.90;;;;;;4965256;28;20023;-90
2022/07/21 11:14:44;;;;;;;2.42;1.00;;;29.20;91.60;;;;;;4992733;28;20030;-91
2022/07/21 11:17:30;;;;;;;2.88;1.30;;;29.20;91.50;;;;;;4975061;28;20053;-91
2022/07/21 11:19:56;;;;;;;2.20;0.93;;;29.20;91.40;;;;;;4973052;28;20034;-91
2022/07/21 11:22:29;;;;;;;3.08;1.08;;;29.00;90.70;;;;;;4962802;28;20026;-91
2022/07/21 11:25:04;;;;;;;2.10;1.00;;;28.70;91.30;;;;;;4973507;28;20118;-91
2022/07/21 11:27:49;;;;;;;2.40;1.00;;;28.30;91.20;;;;;;4964498;28;20030;-91
2022/07/21 11:30:38;;;;;;;3.40;1.20;;;28.50;92.70;;;;;;4979931;28;20046;-91
2022/07/21 11:33:59;;;;;;;2.42;1.20;;;28.90;90.70;;;;;;5005245;28;20027;-92
2022/07/21 11:39:58;;;;;;;3.55;1.00;;;29.40;89.10;;;;;;4891519;29;20130;-91
2022/07/21 11:42:26;;;;;;;2.50;1.20;;;29.30;87.90;;;;;;4966418;28;20580;-92
2022/07/21 11:44:54;;;;;;;2.13;0.98;;;29.20;87.30;;;;;;4976347;28;20031;-91
2022/07/21 11:47:25;;;;;;;2.17;1.00;;;29.20;88.20;;;;;;4971031;28;20045;-92
2022/07/21 11:49:54;;;;;;;2.40;1.00;;;29.70;87.40;;;;;;4973241;28;20034;-91
2022/07/21 11:52:26;;;;;;;2.97;1.10;;;29.60;88.90;;;;;;4974591;28;20027;-92
2022/07/21 11:55:00;;;;;;;1.85;1.00;;;29.00;88.10;;;;;;4982766;28;20030;-92
2022/07/21 11:57:29;;;;;;;2.10;1.10;;;28.60;90.40;;;;;;4982075;28;20019;-92
2022/07/21 11:59:57;;;;;;;1.92;1.02;;;28.70;89.10;;;;;;4961191;28;20027;-92
2022/07/21 12:02:29;;;;;;;4.97;1.20;;;29.50;85.70;;;;;;4966598;28;20035;-93
2022/07/21 12:05:26;;;;;;;2.08;1.00;;;29.70;87.40;;;;;;4976015;28;20521;-92
2022/07/21 12:07:53;;;;;;;1.95;0.95;;;30.10;84.30;;;;;;4970367;28;20035;-92
2022/07/21 12:10:32;;;;;;;1.48;1.00;;;30.30;86.30;;;;;;4976706;28;20114;-92
2022/07/21 12:13:21;;;;;;;1.98;0.93;;;29.90;83.70;;;;;;4971690;28;20046;-92
2022/07/21 12:16:14;;;;;;;2.50;1.25;;;29.50;80.80;;;;;;4970768;28;20023;-93
2022/07/21 12:19:05;;;;;;;5.05;1.08;;;29.10;81.90;;;;;;4973593;28;20030;-92
2022/07/21 12:22:08;;;;;;;2.88;1.08;;;29.50;83.00;;;;;;4970253;28;20117;-93
2022/07/21 12:25:06;;;;;;;3.00;0.60;;;30.30;81.60;;;;;;4956817;28;20101;-93
2022/07/21 15:19:52;;;;;;;2.70;1.15;;;29.10;78.20;;;;;;3870113;23;20342;-91
2022/07/21 15:22:24;;;;;;;3.60;1.35;;;29.10;78.10;;;;;;4993344;28;20368;-92
2022/07/21 15:25:09;;;;;;;3.17;1.30;;;29.10;78.70;;;;;;4990466;28;20036;-92
2022/07/21 15:27:48;;;;;;;2.17;1.10;;;29.10;79.70;;;;;;4989522;28;20053;-92
2022/07/21 15:30:18;;;;;;;3.15;1.33;;;29.10;78.90;;;;;;4996449;28;20109;-92
2022/07/21 15:32:43;;;;;;;3.53;1.40;;;28.90;78.90;;;;;;4990712;28;20022;-92
2022/07/21 15:35:44;;;;;;;3.00;1.50;;;28.90;78.60;;;;;;4990623;28;20028;-92
2022/07/21 15:38:31;;;;;;;2.55;1.20;;;28.80;79.50;;;;;;4975576;28;20097;-92
2022/07/21 15:41:11;;;;;;;4.05;1.20;;;29.50;80.00;;;;;;4995495;28;20121;-93
2022/07/21 15:46:51;;;;;;;2.95;1.73;;;30.40;77.40;;;;;;5007962;28;20457;-92
2022/07/21 15:49:22;;;;;;;3.42;1.30;;;30.40;77.60;;;;;;4990033;28;20106;-93
2022/07/21 15:52:05;;;;;;;2.80;1.30;;;30.40;77.90;;;;;;4998861;28;20393;-91
2022/07/21 15:55:07;;;;;;;2.92;1.20;;;30.70;75.90;;;;;;4998697;28;20032;-91
2022/07/21 15:57:52;;;;;;;2.17;1.10;;;30.40;76.50;;;;;;4983318;28;20391;-91
2022/07/21 16:00:36;;;;;;;2.17;1.10;;;30.00;76.80;;;;;;4989850;28;20052;-91
2022/07/21 16:03:28;;;;;;;3.33;1.15;;;29.80;78.10;;;;;;4984038;28;20042;-92
2022/07/21 16:06:42;;;;;;;2.10;1.30;;;29.60;77.60;;;;;;4988730;28;20034;-92
2022/07/21 16:09:28;;;;;;;2.22;1.40;;;30.20;78.70;;;;;;4989418;28;20052;-91
2022/07/21 16:11:59;;;;;;;2.05;1.27;;;30.90;76.80;;;;;;4983763;28;20041;-91
2022/07/21 16:14:28;;;;;;;2.15;1.10;;;31.20;75.10;;;;;;4983823;28;20027;-92
2022/07/21 16:16:54;;;;;;;2.60;1.10;;;31.00;74.30;;;;;;5005509;28;20030;-91
2022/07/21 16:19:21;;;;;;;2.60;1.25;;;31.20;74.40;;;;;;5013426;28;20490;-90
2022/07/21 16:21:48;;;;;;;2.13;1.08;;;31.30;75.40;;;;;;4989095;28;20049;-91
2022/07/21 16:24:15;;;;;;;3.53;1.25;;;31.10;74.80;;;;;;5009888;28;20096;-92
2022/07/21 16:26:42;;;;;;;2.28;1.00;;;30.90;75.40;;;;;;4987605;28;20030;-91
2022/07/21 16:29:28;;;;;;;2.67;1.42;;;30.60;76.60;;;;;;4997520;28;20039;-91
2022/07/21 16:32:02;;;;;;;3.10;1.00;;;30.20;76.30;;;;;;5010593;28;20019;-90
2022/07/21 16:34:33;;;;;;;3.60;1.55;;;29.60;76.30;;;;;;4990562;28;20018;-91
2022/07/21 16:37:10;;;;;;;2.22;1.00;;;29.40;77.00;;;;;;4990527;28;20482;-92
2022/07/21 16:39:47;;;;;;;2.75;1.17;;;29.10;77.70;;;;;;4989066;28;20034;-91
2022/07/21 16:42:13;;;;;;;2.65;0.93;;;28.70;78.60;;;;;;4996940;28;20090;-91
2022/07/21 16:44:42;;;;;;;1.88;1.08;;;28.60;79.40;;;;;;4997592;28;20053;-92
2022/07/21 16:47:25;;;;;;;2.05;1.20;;;28.60;79.00;;;;;;4998543;28;20096;-91
2022/07/21 16:49:54;;;;;;;2.10;1.13;;;28.40;79.90;;;;;;4996604;28;20130;-94
2022/07/21 16:52:27;;;;;;;2.55;1.27;;;28.40;80.30;;;;;;5015801;28;20033;-94
2022/07/21 16:55:02;;;;;;;2.10;1.10;;;28.30;80.10;;;;;;4986183;28;20046;-93
2022/07/21 16:57:33;;;;;;;2.70;1.10;;;28.20;81.20;;;;;;4988410;28;20033;-93
2022/07/21 16:59:59;;;;;;;;;;;28.10;82.50;;;;;;5017979;28;20033;-93
2022/07/21 17:02:42;;;;;;;2.30;0.90;;;28.00;81.00;;;;;;4998841;28;19906;-92
2022/07/21 17:05:30;;;;;;;3.90;1.52;;;27.90;80.30;;;;;;5002001;28;20034;-92
2022/07/21 17:07:56;;;;;;;3.45;1.42;;;27.90;80.70;;;;;;5000497;28;20498;-86
2022/07/21 17:10:22;;;;;;;2.95;1.30;;;27.80;81.30;;;;;;5014305;28;20082;-87
2022/07/21 17:12:48;;;;;;;2.05;1.00;;;27.70;81.30;;;;;;4989129;28;20026;-86